createdAt,value
2023-03-02T00:00:25.063Z,999.49
2023-03-02T00:01:25.056Z,999.58
2023-03-02T00:02:25.192Z,999.50
2023-03-02T00:03:25.081Z,999.52
2023-03-02T00:04:25.100Z,999.57
2023-03-02T00:05:25.043Z,999.54
2023-03-02T00:06:25.023Z,999.55
2023-03-02T00:07:25.021Z,999.52
2023-03-02T00:08:25.006Z,999.51
2023-03-02T00:09:25.025Z,999.54
2023-03-02T00:10:24.991Z,999.59
2023-03-02T00:11:24.988Z,999.60
2023-03-02T00:12:25.977Z,999.56
2023-03-02T00:13:24.975Z,999.49
2023-03-02T00:14:25.037Z,999.54
2023-03-02T00:15:24.960Z,999.59
2023-03-02T00:16:25.015Z,999.59
2023-03-02T00:17:24.950Z,999.53
2023-03-02T00:18:24.941Z,999.45
2023-03-02T00:19:24.937Z,999.46
2023-03-02T00:20:24.952Z,999.49
2023-03-02T00:21:24.921Z,999.40
2023-03-02T00:22:24.915Z,999.48
2023-03-02T00:23:24.909Z,999.43
2023-03-02T00:24:24.898Z,999.43
2023-03-02T00:25:24.908Z,999.51
2023-03-02T00:26:24.877Z,999.54
2023-03-02T00:27:24.873Z,999.47
2023-03-02T00:28:24.865Z,999.50
2023-03-02T00:29:24.851Z,999.43
2023-03-02T00:30:25.876Z,999.41
2023-03-02T00:31:24.888Z,999.42
2023-03-02T00:32:24.905Z,999.38
2023-03-02T00:33:24.825Z,999.48
2023-03-02T00:34:24.828Z,999.46
2023-03-02T00:35:24.860Z,999.40
2023-03-02T00:36:24.800Z,999.52
2023-03-02T00:37:24.796Z,999.39
2023-03-02T00:38:24.791Z,999.44
2023-03-02T00:39:24.783Z,999.49
2023-03-02T00:40:24.798Z,999.37
2023-03-02T00:41:24.762Z,999.40
2023-03-02T00:42:24.755Z,999.41
2023-03-02T00:43:24.746Z,999.36
2023-03-02T00:44:24.744Z,999.39
2023-03-02T00:45:24.763Z,999.47
2023-03-02T00:46:24.778Z,999.35
2023-03-02T00:47:24.723Z,999.42
2023-03-02T00:48:24.728Z,999.39
2023-03-02T00:49:24.698Z,999.34
2023-03-02T00:50:24.721Z,999.39
2023-03-02T00:51:24.692Z,999.44
2023-03-02T00:52:24.697Z,999.45
2023-03-02T00:53:24.690Z,999.43
2023-03-02T00:54:24.665Z,999.37
2023-03-02T00:55:24.681Z,999.36
2023-03-02T00:56:24.661Z,999.38
2023-03-02T00:57:24.637Z,999.34
2023-03-02T00:58:24.635Z,999.34
2023-03-02T00:59:24.620Z,999.39
2023-03-02T01:00:24.647Z,999.36
2023-03-02T01:01:24.614Z,999.35
2023-03-02T01:02:24.686Z,999.34
2023-03-02T01:03:24.699Z,999.33
2023-03-02T01:04:24.603Z,999.32
2023-03-02T01:05:24.603Z,999.39
2023-03-02T01:06:24.585Z,999.32
2023-03-02T01:07:24.563Z,999.24
2023-03-02T01:08:24.562Z,999.26
2023-03-02T01:09:24.555Z,999.24
2023-03-02T01:10:24.572Z,999.24
2023-03-02T01:11:24.544Z,999.24
2023-03-02T01:12:24.533Z,999.23
2023-03-02T01:13:24.527Z,999.18
2023-03-02T01:14:24.530Z,999.12
2023-03-02T01:15:24.535Z,999.20
2023-03-02T01:16:24.582Z,999.19
2023-03-02T01:17:24.475Z,999.13
2023-03-02T01:18:25.487Z,999.17
2023-03-02T01:19:24.486Z,999.13
2023-03-02T01:20:24.500Z,999.13
2023-03-02T01:21:24.462Z,999.12
2023-03-02T01:22:24.448Z,999.15
2023-03-02T01:23:24.450Z,999.06
2023-03-02T01:24:24.447Z,999.12
2023-03-02T01:25:24.459Z,999.08
2023-03-02T01:26:24.435Z,999.08
2023-03-02T01:27:24.423Z,999.07
2023-03-02T01:28:24.415Z,999.03
2023-03-02T01:29:24.405Z,999.07
2023-03-02T01:30:24.428Z,999.00
2023-03-02T01:31:24.427Z,999.05
2023-03-02T01:32:24.410Z,998.99
2023-03-02T01:33:24.374Z,999.01
2023-03-02T01:34:24.371Z,998.94
2023-03-02T01:35:24.442Z,998.99
2023-03-02T01:36:24.350Z,998.96
2023-03-02T01:37:24.345Z,998.92
2023-03-02T01:38:24.344Z,998.92
2023-03-02T01:39:24.345Z,998.91
2023-03-02T01:40:24.348Z,998.91
2023-03-02T01:41:24.316Z,998.90
2023-03-02T01:42:24.304Z,998.88
2023-03-02T01:43:24.319Z,998.95
2023-03-02T01:44:24.295Z,998.99
2023-03-02T01:45:24.366Z,998.99
2023-03-02T01:46:24.284Z,999.01
2023-03-02T01:47:24.293Z,998.99
2023-03-02T01:48:24.263Z,998.94
2023-03-02T01:49:24.265Z,998.99
2023-03-02T01:50:24.279Z,998.93
2023-03-02T01:51:24.236Z,998.95
2023-03-02T01:52:24.243Z,998.93
2023-03-02T01:53:24.226Z,998.95
2023-03-02T01:54:24.214Z,998.95
2023-03-02T01:55:24.248Z,998.91
2023-03-02T01:56:24.208Z,998.99
2023-03-02T01:57:24.196Z,998.96
2023-03-02T01:58:24.188Z,998.95
2023-03-02T01:59:24.179Z,999.01
2023-03-02T02:00:24.200Z,998.93
2023-03-02T02:01:24.271Z,998.91
2023-03-02T02:02:24.160Z,998.96
2023-03-02T02:03:24.160Z,998.96
2023-03-02T02:04:24.204Z,998.90
2023-03-02T02:05:24.166Z,998.95
2023-03-02T02:06:24.142Z,998.91
2023-03-02T02:07:24.119Z,998.89
2023-03-02T02:08:24.111Z,998.95
2023-03-02T02:09:24.115Z,998.88
2023-03-02T02:10:24.122Z,998.87
2023-03-02T02:11:24.093Z,998.84
2023-03-02T02:12:24.082Z,998.90
2023-03-02T02:13:24.074Z,998.86
2023-03-02T02:14:24.071Z,998.88
2023-03-02T02:15:24.090Z,998.82
2023-03-02T02:16:24.067Z,998.79
2023-03-02T02:17:24.035Z,998.84
2023-03-02T02:18:24.029Z,998.80
2023-03-02T02:19:24.033Z,998.83
2023-03-02T02:20:24.080Z,998.88
2023-03-02T02:21:24.010Z,998.77
2023-03-02T02:22:24.003Z,998.88
2023-03-02T02:23:23.995Z,998.86
2023-03-02T02:24:23.988Z,998.92
2023-03-02T02:25:24.025Z,998.77
2023-03-02T02:26:23.974Z,998.82
2023-03-02T02:27:23.971Z,998.84
2023-03-02T02:28:23.957Z,998.91
2023-03-02T02:29:23.950Z,998.88
2023-03-02T02:30:23.949Z,998.83
2023-03-02T02:31:23.989Z,998.82
2023-03-02T02:32:24.026Z,998.81
2023-03-02T02:33:23.931Z,998.75
2023-03-02T02:34:23.914Z,998.81
2023-03-02T02:35:23.945Z,998.81
2023-03-02T02:36:23.921Z,998.83
2023-03-02T02:37:23.886Z,998.76
2023-03-02T02:38:23.882Z,998.74
2023-03-02T02:39:23.876Z,998.76
2023-03-02T02:40:23.878Z,998.71
2023-03-02T02:41:23.887Z,998.68
2023-03-02T02:42:23.857Z,998.72
2023-03-02T02:43:23.848Z,998.67
2023-03-02T02:44:23.845Z,998.68
2023-03-02T02:45:23.841Z,998.68
2023-03-02T02:46:23.853Z,998.70
2023-03-02T02:47:23.818Z,998.68
2023-03-02T02:48:23.807Z,998.67
2023-03-02T02:49:23.804Z,998.68
2023-03-02T02:50:23.787Z,998.63
2023-03-02T02:51:23.813Z,998.68
2023-03-02T02:52:23.776Z,998.66
2023-03-02T02:53:23.771Z,998.68
2023-03-02T02:54:23.762Z,998.67
2023-03-02T02:55:23.783Z,998.69
2023-03-02T02:56:23.780Z,998.68
2023-03-02T02:57:23.735Z,998.70
2023-03-02T02:58:23.729Z,998.69
2023-03-02T02:59:23.732Z,998.69
2023-03-02T03:00:23.716Z,998.69
2023-03-02T03:01:23.783Z,998.68
2023-03-02T03:02:23.696Z,998.67
2023-03-02T03:03:23.698Z,998.60
2023-03-02T03:04:23.796Z,998.62
2023-03-02T03:05:23.676Z,998.65
2023-03-02T03:06:23.704Z,998.64
2023-03-02T03:07:23.667Z,998.64
2023-03-02T03:08:23.688Z,998.59
2023-03-02T03:09:23.693Z,998.57
2023-03-02T03:10:23.646Z,998.60
2023-03-02T03:11:23.684Z,998.57
2023-03-02T03:12:23.647Z,998.59
2023-03-02T03:13:23.616Z,998.63
2023-03-02T03:14:23.615Z,998.57
2023-03-02T03:15:23.608Z,998.58
2023-03-02T03:16:23.664Z,998.47
2023-03-02T03:17:23.597Z,998.55
2023-03-02T03:18:23.581Z,998.59
2023-03-02T03:19:23.574Z,998.54
2023-03-02T03:20:23.561Z,998.55
2023-03-02T03:21:23.585Z,998.54
2023-03-02T03:22:23.548Z,998.45
2023-03-02T03:23:23.537Z,998.52
2023-03-02T03:24:23.541Z,998.53
2023-03-02T03:25:23.524Z,998.50
2023-03-02T03:26:23.542Z,998.51
2023-03-02T03:27:23.504Z,998.48
2023-03-02T03:28:23.499Z,998.51
2023-03-02T03:29:23.490Z,998.42
2023-03-02T03:30:23.493Z,998.54
2023-03-02T03:31:23.554Z,998.46
2023-03-02T03:32:23.512Z,998.47
2023-03-02T03:33:23.460Z,998.50
2023-03-02T03:34:23.460Z,998.50
2023-03-02T03:35:23.465Z,998.44
2023-03-02T03:36:23.486Z,998.55
2023-03-02T03:37:23.464Z,998.53
2023-03-02T03:38:23.436Z,998.54
2023-03-02T03:39:23.421Z,998.53
2023-03-02T03:40:23.406Z,998.50
2023-03-02T03:41:23.585Z,998.50
2023-03-02T03:42:23.401Z,998.47
2023-03-02T03:43:23.398Z,998.49
2023-03-02T03:44:23.387Z,998.47
2023-03-02T03:45:23.375Z,998.53
2023-03-02T03:46:23.414Z,998.51
2023-03-02T03:47:23.385Z,998.51
2023-03-02T03:48:23.355Z,998.46
2023-03-02T03:49:23.349Z,998.51
2023-03-02T03:50:23.338Z,998.50
2023-03-02T03:51:23.343Z,998.51
2023-03-02T03:52:23.351Z,998.55
2023-03-02T03:53:23.318Z,998.43
2023-03-02T03:54:23.312Z,998.55
2023-03-02T03:55:23.298Z,998.40
2023-03-02T03:56:23.293Z,998.49
2023-03-02T03:57:23.313Z,998.50
2023-03-02T03:58:23.307Z,998.50
2023-03-02T03:59:23.282Z,998.42
2023-03-02T04:00:23.261Z,998.42
2023-03-02T04:01:23.280Z,998.43
2023-03-02T04:02:23.312Z,998.43
2023-03-02T04:03:23.234Z,998.50
2023-03-02T04:04:23.229Z,998.48
2023-03-02T04:05:23.227Z,998.39
2023-03-02T04:06:23.220Z,998.47
2023-03-02T04:07:23.232Z,998.47
2023-03-02T04:08:23.202Z,998.45
2023-03-02T04:09:23.215Z,998.46
2023-03-02T04:10:23.187Z,998.47
2023-03-02T04:11:23.182Z,998.49
2023-03-02T04:12:23.198Z,998.49
2023-03-02T04:13:23.162Z,998.43
2023-03-02T04:14:23.165Z,998.44
2023-03-02T04:15:24.361Z,998.45
2023-03-02T04:16:23.150Z,998.40
2023-03-02T04:17:23.171Z,998.44
2023-03-02T04:18:23.123Z,998.39
2023-03-02T04:19:23.119Z,998.44
2023-03-02T04:20:23.130Z,998.42
2023-03-02T04:21:23.109Z,998.46
2023-03-02T04:22:23.126Z,998.40
2023-03-02T04:23:23.095Z,998.43
2023-03-02T04:24:23.102Z,998.44
2023-03-02T04:25:23.081Z,998.47
2023-03-02T04:26:23.075Z,998.41
2023-03-02T04:27:23.093Z,998.45
2023-03-02T04:28:23.067Z,998.38
2023-03-02T04:29:23.055Z,998.39
2023-03-02T04:30:23.047Z,998.47
2023-03-02T04:31:23.099Z,998.44
2023-03-02T04:32:23.148Z,998.45
2023-03-02T04:33:23.030Z,998.48
2023-03-02T04:34:23.020Z,998.50
2023-03-02T04:35:23.054Z,998.45
2023-03-02T04:36:23.004Z,998.40
2023-03-02T04:37:23.017Z,998.45
2023-03-02T04:38:22.993Z,998.41
2023-03-02T04:39:22.985Z,998.40
2023-03-02T04:40:22.977Z,998.44
2023-03-02T04:41:22.963Z,998.36
2023-03-02T04:42:22.988Z,998.40
2023-03-02T04:43:22.969Z,998.36
2023-03-02T04:44:22.952Z,998.48
2023-03-02T04:45:22.943Z,998.48
2023-03-02T04:46:23.065Z,998.47
2023-03-02T04:47:22.953Z,998.49
2023-03-02T04:48:22.928Z,998.44
2023-03-02T04:49:22.910Z,998.45
2023-03-02T04:50:22.904Z,998.40
2023-03-02T04:51:22.895Z,998.48
2023-03-02T04:52:22.920Z,998.46
2023-03-02T04:53:22.887Z,998.42
2023-03-02T04:54:22.880Z,998.50
2023-03-02T04:55:22.876Z,998.50
2023-03-02T04:56:22.866Z,998.49
2023-03-02T04:57:22.883Z,998.50
2023-03-02T04:58:22.844Z,998.46
2023-03-02T04:59:22.836Z,998.51
2023-03-02T05:00:22.835Z,998.45
2023-03-02T05:01:22.821Z,998.49
2023-03-02T05:02:22.854Z,998.45
2023-03-02T05:03:22.812Z,998.44
2023-03-02T05:04:22.880Z,998.50
2023-03-02T05:05:22.797Z,998.49
2023-03-02T05:06:22.784Z,998.55
2023-03-02T05:07:22.813Z,998.52
2023-03-02T05:08:22.772Z,998.56
2023-03-02T05:09:22.760Z,998.54
2023-03-02T05:10:22.750Z,998.51
2023-03-02T05:11:22.757Z,998.57
2023-03-02T05:12:22.764Z,998.46
2023-03-02T05:13:22.743Z,998.51
2023-03-02T05:14:22.723Z,998.51
2023-03-02T05:15:22.719Z,998.51
2023-03-02T05:16:22.748Z,998.45
2023-03-02T05:17:22.733Z,998.53
2023-03-02T05:18:22.719Z,998.48
2023-03-02T05:19:22.688Z,998.49
2023-03-02T05:20:22.679Z,998.48
2023-03-02T05:21:22.674Z,998.56
2023-03-02T05:22:22.689Z,998.50
2023-03-02T05:23:24.913Z,998.50
2023-03-02T05:24:22.652Z,998.51
2023-03-02T05:25:22.646Z,998.56
2023-03-02T05:26:22.637Z,998.56
2023-03-02T05:27:22.658Z,998.56
2023-03-02T05:28:22.630Z,998.57
2023-03-02T05:29:22.613Z,998.57
2023-03-02T05:30:22.612Z,998.59
2023-03-02T05:31:22.644Z,998.55
2023-03-02T05:32:22.667Z,998.53
2023-03-02T05:33:22.604Z,998.55
2023-03-02T05:34:22.576Z,998.63
2023-03-02T05:35:22.695Z,998.58
2023-03-02T05:36:23.390Z,998.57
2023-03-02T05:37:23.588Z,998.59
2023-03-02T05:38:22.556Z,998.56
2023-03-02T05:39:22.610Z,998.58
2023-03-02T05:40:22.538Z,998.58
2023-03-02T05:41:22.531Z,998.53
2023-03-02T05:42:22.635Z,998.56
2023-03-02T05:43:22.514Z,998.59
2023-03-02T05:44:22.504Z,998.62
2023-03-02T05:45:22.513Z,998.63
2023-03-02T05:46:22.505Z,998.66
2023-03-02T05:47:22.512Z,998.62
2023-03-02T05:48:22.482Z,998.64
2023-03-02T05:49:22.468Z,998.73
2023-03-02T05:50:22.461Z,998.72
2023-03-02T05:51:22.474Z,998.71
2023-03-02T05:52:22.463Z,998.68
2023-03-02T05:53:22.430Z,998.63
2023-03-02T05:54:22.428Z,998.64
2023-03-02T05:55:22.422Z,998.68
2023-03-02T05:56:22.408Z,998.66
2023-03-02T05:57:22.425Z,998.70
2023-03-02T05:58:22.393Z,998.77
2023-03-02T05:59:22.393Z,998.73
2023-03-02T06:00:22.397Z,998.70
2023-03-02T06:01:22.376Z,998.66
2023-03-02T06:02:22.445Z,998.74
2023-03-02T06:03:22.409Z,998.72
2023-03-02T06:04:22.367Z,998.73
2023-03-02T06:05:22.352Z,998.64
2023-03-02T06:06:22.338Z,998.68
2023-03-02T06:07:22.365Z,998.70
2023-03-02T06:08:22.315Z,998.72
2023-03-02T06:09:22.327Z,998.70
2023-03-02T06:10:22.307Z,998.76
2023-03-02T06:11:22.311Z,998.72
2023-03-02T06:12:22.324Z,998.73
2023-03-02T06:13:22.284Z,998.75
2023-03-02T06:14:22.277Z,998.72
2023-03-02T06:15:22.275Z,998.79
2023-03-02T06:16:22.280Z,998.79
2023-03-02T06:17:22.254Z,998.80
2023-03-02T06:18:22.274Z,998.75
2023-03-02T06:19:22.241Z,998.78
2023-03-02T06:20:22.224Z,998.81
2023-03-02T06:21:22.221Z,998.84
2023-03-02T06:22:22.214Z,998.84
2023-03-02T06:23:22.233Z,998.84
2023-03-02T06:24:22.196Z,998.85
2023-03-02T06:25:22.186Z,998.87
2023-03-02T06:26:22.202Z,998.76
2023-03-02T06:27:22.177Z,998.81
2023-03-02T06:28:22.207Z,998.76
2023-03-02T06:29:22.166Z,998.78
2023-03-02T06:30:22.168Z,998.86
2023-03-02T06:31:22.282Z,998.85
2023-03-02T06:32:22.283Z,998.86
2023-03-02T06:33:22.174Z,998.88
2023-03-02T06:34:22.148Z,998.86
2023-03-02T06:35:22.239Z,998.84
2023-03-02T06:36:22.172Z,998.88
2023-03-02T06:37:22.107Z,998.95
2023-03-02T06:38:22.123Z,998.96
2023-03-02T06:39:22.116Z,998.97
2023-03-02T06:40:22.098Z,998.95
2023-03-02T06:41:22.090Z,998.96
2023-03-02T06:42:22.068Z,999.00
2023-03-02T06:43:22.124Z,998.98
2023-03-02T06:44:22.057Z,998.97
2023-03-02T06:45:22.055Z,998.97
2023-03-02T06:46:22.141Z,998.99
2023-03-02T06:47:22.033Z,999.00
2023-03-02T06:48:22.054Z,998.97
2023-03-02T06:49:22.015Z,998.97
2023-03-02T06:50:22.006Z,998.96
2023-03-02T06:51:22.076Z,998.99
2023-03-02T06:52:21.990Z,999.05
2023-03-02T06:53:22.008Z,999.03
2023-03-02T06:54:24.001Z,999.04
2023-03-02T06:55:22.990Z,999.00
2023-03-02T06:56:21.965Z,999.10
2023-03-02T06:57:21.946Z,999.05
2023-03-02T06:58:21.967Z,999.03
2023-03-02T06:59:21.956Z,999.02
2023-03-02T07:00:22.177Z,998.97
2023-03-02T07:01:21.965Z,998.96
2023-03-02T07:02:21.912Z,999.01
2023-03-02T07:03:21.970Z,999.01
2023-03-02T07:04:21.914Z,999.03
2023-03-02T07:05:21.888Z,999.03
2023-03-02T07:06:21.878Z,998.96
2023-03-02T07:07:21.863Z,999.00
2023-03-02T07:08:21.893Z,999.04
2023-03-02T07:09:21.853Z,999.05
2023-03-02T07:10:21.881Z,999.00
2023-03-02T07:11:21.911Z,998.94
2023-03-02T07:12:21.829Z,998.93
2023-03-02T07:13:21.870Z,999.02
2023-03-02T07:14:21.809Z,998.98
2023-03-02T07:15:21.801Z,998.99
2023-03-02T07:16:21.813Z,998.96
2023-03-02T07:17:21.781Z,999.00
2023-03-02T07:18:21.804Z,998.98
2023-03-02T07:19:21.770Z,999.05
2023-03-02T07:20:21.800Z,999.04
2023-03-02T07:21:21.751Z,999.01
2023-03-02T07:22:21.741Z,998.99
2023-03-02T07:23:21.760Z,998.98
2023-03-02T07:24:21.725Z,998.96
2023-03-02T07:25:21.722Z,998.94
2023-03-02T07:26:21.709Z,998.90
2023-03-02T07:27:21.704Z,998.92
2023-03-02T07:28:21.722Z,998.93
2023-03-02T07:29:21.690Z,998.92
2023-03-02T07:30:21.681Z,998.88
2023-03-02T07:31:21.754Z,998.85
2023-03-02T07:32:21.717Z,998.87
2023-03-02T07:33:21.675Z,998.89
2023-03-02T07:34:21.651Z,998.94
2023-03-02T07:35:21.679Z,998.86
2023-03-02T07:36:21.629Z,998.89
2023-03-02T07:37:21.624Z,998.92
2023-03-02T07:38:21.637Z,998.95
2023-03-02T07:39:21.607Z,998.98
2023-03-02T07:40:21.594Z,998.94
2023-03-02T07:41:21.586Z,998.90
2023-03-02T07:42:21.571Z,998.96
2023-03-02T07:43:22.602Z,999.04
2023-03-02T07:44:21.567Z,998.99
2023-03-02T07:45:21.575Z,998.95
2023-03-02T07:46:21.596Z,999.02
2023-03-02T07:47:21.546Z,998.98
2023-03-02T07:48:21.556Z,998.99
2023-03-02T07:49:21.522Z,999.01
2023-03-02T07:50:21.517Z,998.95
2023-03-02T07:51:21.513Z,999.03
2023-03-02T07:52:21.520Z,999.02
2023-03-02T07:53:21.516Z,999.01
2023-03-02T07:54:21.479Z,999.02
2023-03-02T07:55:21.477Z,999.00
2023-03-02T07:56:21.467Z,999.00
2023-03-02T07:57:21.471Z,998.99
2023-03-02T07:58:21.482Z,999.02
2023-03-02T07:59:21.442Z,999.01
2023-03-02T08:00:21.434Z,999.14
2023-03-02T08:01:21.510Z,999.04
2023-03-02T08:02:21.440Z,999.09
2023-03-02T08:03:21.429Z,999.02
2023-03-02T08:04:21.397Z,999.06
2023-03-02T08:05:21.400Z,999.08
2023-03-02T08:06:21.386Z,999.06
2023-03-02T08:07:21.383Z,999.10
2023-03-02T08:08:21.432Z,999.09
2023-03-02T08:09:21.376Z,999.06
2023-03-02T08:10:21.360Z,999.03
2023-03-02T08:11:21.349Z,999.02
2023-03-02T08:12:21.343Z,999.02
2023-03-02T08:13:21.364Z,998.99
2023-03-02T08:14:21.324Z,999.04
2023-03-02T08:15:21.311Z,999.07
2023-03-02T08:16:21.343Z,999.00
2023-03-02T08:17:21.302Z,999.02
2023-03-02T08:18:21.319Z,999.04
2023-03-02T08:19:21.298Z,998.92
2023-03-02T08:20:21.290Z,998.97
2023-03-02T08:21:21.282Z,998.89
2023-03-02T08:22:21.263Z,999.14
2023-03-02T08:23:21.324Z,998.98
2023-03-02T08:24:21.248Z,999.07
2023-03-02T08:25:21.245Z,999.11
2023-03-02T08:26:21.238Z,999.01
2023-03-02T08:27:21.224Z,998.94
2023-03-02T08:28:21.236Z,999.08
2023-03-02T08:29:21.212Z,998.97
2023-03-02T08:30:21.199Z,999.03
2023-03-02T08:31:21.230Z,999.10
2023-03-02T08:32:21.227Z,998.95
2023-03-02T08:33:21.205Z,999.00
2023-03-02T08:34:21.186Z,999.00
2023-03-02T08:35:21.269Z,999.01
2023-03-02T08:36:21.180Z,999.00
2023-03-02T08:37:21.151Z,999.08
2023-03-02T08:38:21.174Z,999.08
2023-03-02T08:39:21.145Z,999.06
2023-03-02T08:40:21.120Z,999.10
2023-03-02T08:41:21.129Z,999.04
2023-03-02T08:42:21.105Z,998.97
2023-03-02T08:43:21.131Z,998.97
2023-03-02T08:44:21.092Z,998.99
2023-03-02T08:45:21.083Z,999.02
2023-03-02T08:46:21.077Z,999.02
2023-03-02T08:47:21.088Z,999.06
2023-03-02T08:48:21.173Z,999.00
2023-03-02T08:49:21.059Z,999.01
2023-03-02T08:50:21.058Z,998.99
2023-03-02T08:51:21.038Z,998.88
2023-03-02T08:52:21.029Z,998.99
2023-03-02T08:53:21.055Z,998.93
2023-03-02T08:54:21.015Z,998.90
2023-03-02T08:55:21.059Z,998.91
2023-03-02T08:56:21.002Z,998.87
2023-03-02T08:57:21.403Z,998.84
2023-03-02T08:58:22.012Z,998.83
2023-03-02T08:59:20.968Z,998.74
2023-03-02T09:00:20.958Z,998.81
2023-03-02T09:01:21.009Z,998.80
2023-03-02T09:02:20.959Z,998.78
2023-03-02T09:03:20.971Z,998.62
2023-03-02T09:04:20.977Z,998.80
2023-03-02T09:05:20.931Z,998.90
2023-03-02T09:06:20.936Z,998.78
2023-03-02T09:07:20.947Z,998.77
2023-03-02T09:08:20.937Z,998.94
2023-03-02T09:09:20.883Z,998.79
2023-03-02T09:10:20.895Z,998.76
2023-03-02T09:11:20.869Z,998.76
2023-03-02T09:12:20.861Z,998.76
2023-03-02T09:13:20.884Z,998.82
2023-03-02T09:14:20.843Z,998.86
2023-03-02T09:15:20.839Z,998.91
2023-03-02T09:16:20.847Z,998.73
2023-03-02T09:17:20.826Z,998.71
2023-03-02T09:18:20.849Z,998.66
2023-03-02T09:19:20.816Z,998.64
2023-03-02T09:20:20.799Z,998.88
2023-03-02T09:21:20.813Z,998.70
2023-03-02T09:22:20.796Z,998.82
2023-03-02T09:23:20.815Z,998.68
2023-03-02T09:24:20.798Z,998.64
2023-03-02T09:25:20.757Z,998.60
2023-03-02T09:26:20.747Z,998.72
2023-03-02T09:27:20.750Z,998.76
2023-03-02T09:28:20.733Z,998.67
2023-03-02T09:29:20.755Z,998.72
2023-03-02T09:30:20.723Z,998.72
2023-03-02T09:31:20.720Z,998.82
2023-03-02T09:32:20.797Z,998.71
2023-03-02T09:33:20.689Z,998.60
2023-03-02T09:34:21.715Z,998.75
2023-03-02T09:35:20.690Z,998.77
2023-03-02T09:36:20.671Z,998.59
2023-03-02T09:37:20.673Z,998.87
2023-03-02T09:38:20.661Z,998.75
2023-03-02T09:39:20.679Z,998.71
2023-03-02T09:40:20.649Z,998.56
2023-03-02T09:41:20.676Z,998.68
2023-03-02T09:42:20.620Z,998.73
2023-03-02T09:43:20.615Z,998.58
2023-03-02T09:44:20.643Z,998.62
2023-03-02T09:45:20.597Z,998.66
2023-03-02T09:46:20.702Z,998.66
2023-03-02T09:47:34.606Z,998.62
2023-03-02T09:48:22.581Z,998.58
2023-03-02T09:49:20.598Z,998.72
2023-03-02T09:50:20.568Z,998.63
2023-03-02T09:51:20.556Z,998.65
2023-03-02T09:52:20.555Z,998.63
2023-03-02T09:53:20.542Z,998.65
2023-03-02T09:54:20.921Z,998.67
2023-03-02T09:55:21.525Z,998.60
2023-03-02T09:56:20.511Z,998.64
2023-03-02T09:57:20.509Z,998.63
2023-03-02T09:58:20.515Z,998.55
2023-03-02T09:59:20.514Z,998.56
2023-03-02T10:00:20.658Z,998.45
2023-03-02T10:01:20.476Z,998.96
2023-03-02T10:02:20.467Z,998.65
2023-03-02T10:03:20.532Z,998.58
2023-03-02T10:04:20.538Z,998.69
2023-03-02T10:05:20.453Z,998.69
2023-03-02T10:06:20.456Z,998.61
2023-03-02T10:07:20.431Z,998.64
2023-03-02T10:08:20.426Z,998.53
2023-03-02T10:09:20.436Z,998.52
2023-03-02T10:10:20.408Z,998.68
2023-03-02T10:11:20.439Z,998.56
2023-03-02T10:12:20.389Z,998.49
2023-03-02T10:13:20.452Z,998.55
2023-03-02T10:14:20.464Z,998.52
2023-03-02T10:15:20.364Z,998.48
2023-03-02T10:16:20.412Z,998.43
2023-03-02T10:17:20.341Z,998.54
2023-03-02T10:18:20.374Z,998.51
2023-03-02T10:19:21.363Z,998.44
2023-03-02T10:20:20.334Z,998.63
2023-03-02T10:21:20.313Z,998.65
2023-03-02T10:22:20.304Z,998.81
2023-03-02T10:23:20.306Z,998.52
2023-03-02T10:24:20.299Z,998.56
2023-03-02T10:25:20.311Z,998.65
2023-03-02T10:26:20.268Z,998.51
2023-03-02T10:27:20.274Z,998.50
2023-03-02T10:28:20.278Z,998.49
2023-03-02T10:29:20.248Z,998.55
2023-03-02T10:30:20.266Z,998.57
2023-03-02T10:31:20.287Z,998.60
2023-03-02T10:32:20.343Z,998.41
2023-03-02T10:33:20.213Z,998.59
2023-03-02T10:34:20.207Z,998.49
2023-03-02T10:35:20.246Z,998.57
2023-03-02T10:36:20.822Z,998.46
2023-03-02T10:37:21.193Z,998.42
2023-03-02T10:38:20.195Z,998.43
2023-03-02T10:39:20.181Z,998.43
2023-03-02T10:40:20.193Z,998.41
2023-03-02T10:41:20.161Z,998.45
2023-03-02T10:42:20.195Z,998.47
2023-03-02T10:43:20.138Z,998.45
2023-03-02T10:44:20.123Z,998.42
2023-03-02T10:45:20.140Z,998.43
2023-03-02T10:46:20.140Z,998.47
2023-03-02T10:47:20.336Z,998.49
2023-03-02T10:48:21.096Z,998.44
2023-03-02T10:49:21.061Z,998.43
2023-03-02T10:50:21.108Z,998.44
2023-03-02T10:51:20.077Z,998.39
2023-03-02T10:52:20.073Z,998.45
2023-03-02T10:53:20.057Z,998.37
2023-03-02T10:54:20.045Z,998.40
2023-03-02T10:55:20.082Z,998.31
2023-03-02T10:56:20.044Z,998.50
2023-03-02T10:57:20.034Z,998.36
2023-03-02T10:58:20.033Z,998.30
2023-03-02T10:59:21.009Z,998.30
2023-03-02T11:00:20.039Z,998.32
2023-03-02T11:01:20.067Z,998.29
2023-03-02T11:02:19.987Z,998.26
2023-03-02T11:03:19.989Z,998.34
2023-03-02T11:04:20.028Z,998.26
2023-03-02T11:05:19.988Z,998.27
2023-03-02T11:06:19.968Z,998.22
2023-03-02T11:07:19.967Z,998.23
2023-03-02T11:08:19.943Z,998.20
2023-03-02T11:09:19.934Z,998.29
2023-03-02T11:10:19.956Z,998.21
2023-03-02T11:11:19.958Z,998.25
2023-03-02T11:12:19.923Z,998.23
2023-03-02T11:13:19.903Z,998.16
2023-03-02T11:14:19.894Z,998.16
2023-03-02T11:15:19.920Z,998.11
2023-03-02T11:16:20.036Z,998.23
2023-03-02T11:17:19.883Z,998.08
2023-03-02T11:18:19.873Z,998.02
2023-03-02T11:19:19.863Z,998.12
2023-03-02T11:20:19.854Z,998.25
2023-03-02T11:21:19.888Z,998.10
2023-03-02T11:22:19.838Z,998.03
2023-03-02T11:23:19.837Z,998.11
2023-03-02T11:24:19.812Z,998.10
2023-03-02T11:25:19.813Z,998.11
2023-03-02T11:26:19.829Z,998.15
2023-03-02T11:27:19.804Z,998.09
2023-03-02T11:28:19.781Z,998.14
2023-03-02T11:29:22.450Z,998.05
2023-03-02T11:30:19.770Z,998.02
2023-03-02T11:31:19.808Z,998.09
2023-03-02T11:32:19.785Z,998.02
2023-03-02T11:33:19.829Z,998.06
2023-03-02T11:34:19.752Z,998.00
2023-03-02T11:35:22.121Z,998.08
2023-03-02T11:36:19.757Z,997.89
2023-03-02T11:37:19.722Z,997.86
2023-03-02T11:38:19.712Z,997.96
2023-03-02T11:39:19.711Z,997.89
2023-03-02T11:40:19.704Z,998.02
2023-03-02T11:41:19.706Z,997.90
2023-03-02T11:42:20.737Z,998.01
2023-03-02T11:43:19.677Z,997.84
2023-03-02T11:44:19.661Z,997.85
2023-03-02T11:45:19.656Z,997.80
2023-03-02T11:46:22.311Z,997.90
2023-03-02T11:47:20.717Z,997.72
2023-03-02T11:48:19.638Z,997.99
2023-03-02T11:49:19.623Z,997.99
2023-03-02T11:50:19.632Z,997.90
2023-03-02T11:51:19.645Z,997.92
2023-03-02T11:52:19.611Z,997.78
2023-03-02T11:53:19.633Z,997.73
2023-03-02T11:54:19.589Z,997.63
2023-03-02T11:55:19.586Z,997.86
2023-03-02T11:56:19.600Z,997.75
2023-03-02T11:57:19.562Z,997.77
2023-03-02T11:58:19.571Z,997.81
2023-03-02T11:59:19.558Z,997.64
2023-03-02T12:00:19.539Z,997.66
2023-03-02T12:01:20.563Z,997.87
2023-03-02T12:02:19.543Z,997.71
2023-03-02T12:03:19.514Z,997.71
2023-03-02T12:04:19.515Z,997.69
2023-03-02T12:05:19.539Z,997.66
2023-03-02T12:06:19.553Z,997.72
2023-03-02T12:07:19.486Z,997.73
2023-03-02T12:08:19.499Z,997.67
2023-03-02T12:09:19.500Z,997.68
2023-03-02T12:10:19.463Z,997.56
2023-03-02T12:11:19.489Z,997.59
2023-03-02T12:12:19.454Z,997.78
2023-03-02T12:13:19.448Z,997.65
2023-03-02T12:14:19.428Z,997.69
2023-03-02T12:15:19.423Z,997.47
2023-03-02T12:16:19.447Z,997.52
2023-03-02T12:17:19.443Z,997.46
2023-03-02T12:18:19.400Z,997.40
2023-03-02T12:19:19.400Z,997.42
2023-03-02T12:20:19.388Z,997.51
2023-03-02T12:21:19.394Z,997.54
2023-03-02T12:22:19.403Z,997.45
2023-03-02T12:23:19.372Z,997.52
2023-03-02T12:24:19.364Z,997.46
2023-03-02T12:25:19.352Z,997.41
2023-03-02T12:26:19.342Z,997.34
2023-03-02T12:27:19.360Z,997.50
2023-03-02T12:28:19.347Z,997.43